createdAt,value
2017-12-01T00:01:47.840Z,15.73
2017-12-01T00:04:18.103Z,15.86
2017-12-01T00:06:48.761Z,15.94
2017-12-01T00:09:18.021Z,15.80
2017-12-01T00:11:47.246Z,15.84
2017-12-01T00:14:16.342Z,15.90
2017-12-01T00:16:45.350Z,15.86
2017-12-01T00:19:18.355Z,15.87
2017-12-01T00:21:50.873Z,15.80
2017-12-01T00:24:20.149Z,15.76
2017-12-01T00:26:49.235Z,15.70
2017-12-01T00:29:18.350Z,15.67
2017-12-01T00:31:47.440Z,15.61
2017-12-01T00:34:18.453Z,15.54
2017-12-01T00:36:47.474Z,15.46
2017-12-01T00:39:16.527Z,15.46
2017-12-01T00:41:48.328Z,15.42
2017-12-01T00:46:53.034Z,15.37
2017-12-01T00:49:22.068Z,15.30
2017-12-01T00:51:54.236Z,15.27
2017-12-01T00:54:24.026Z,15.30
2017-12-01T00:56:53.193Z,15.30
2017-12-01T00:59:23.915Z,15.34
2017-12-01T01:01:52.975Z,15.38
2017-12-01T01:04:22.219Z,15.35
2017-12-01T01:06:53.352Z,15.38
2017-12-01T01:09:22.449Z,15.38
2017-12-01T01:11:51.458Z,15.40
2017-12-01T01:14:21.284Z,15.41
2017-12-01T01:16:50.644Z,15.36
2017-12-01T01:19:20.788Z,15.39
2017-12-01T01:21:51.745Z,15.44
2017-12-01T01:24:21.708Z,15.40
2017-12-01T01:26:51.109Z,15.42
2017-12-01T01:29:20.361Z,15.67
2017-12-01T01:31:50.467Z,15.79
2017-12-01T01:34:21.363Z,15.97
2017-12-01T01:36:50.514Z,16.00
2017-12-01T01:39:19.693Z,16.08
2017-12-01T01:41:51.423Z,16.08
2017-12-01T01:44:20.317Z,16.00
2017-12-01T01:46:49.603Z,15.95
2017-12-01T01:49:20.646Z,15.87
2017-12-01T01:51:51.606Z,15.93
2017-12-01T01:54:21.656Z,15.92
2017-12-01T01:56:51.005Z,15.95
2017-12-01T01:59:21.113Z,15.90
2017-12-01T02:01:50.987Z,15.90
2017-12-01T02:04:20.069Z,15.85
2017-12-01T02:06:54.366Z,15.84
2017-12-01T02:09:23.551Z,15.86
2017-12-01T02:11:52.650Z,15.77
2017-12-01T02:14:22.753Z,15.71
2017-12-01T02:16:51.841Z,15.74
2017-12-01T02:19:21.001Z,15.79
2017-12-01T02:21:50.981Z,15.85
2017-12-01T02:24:20.443Z,15.76
2017-12-01T02:26:50.356Z,15.85
2017-12-01T02:29:19.517Z,15.77
2017-12-01T02:31:48.635Z,15.74
2017-12-01T02:34:19.589Z,15.74
2017-12-01T02:36:49.634Z,15.75
2017-12-01T02:39:18.781Z,15.65
2017-12-01T02:41:49.734Z,15.59
2017-12-01T02:44:19.891Z,15.59
2017-12-01T02:46:49.804Z,15.61
2017-12-01T02:49:19.725Z,15.57
2017-12-01T02:51:49.806Z,15.54
2017-12-01T02:54:18.992Z,15.48
2017-12-01T02:56:49.007Z,15.38
2017-12-01T03:01:53.268Z,15.39
2017-12-01T03:04:22.388Z,15.36
2017-12-01T03:06:52.705Z,15.37
2017-12-01T03:09:22.659Z,15.36
2017-12-01T03:11:52.953Z,15.32
2017-12-01T03:14:23.249Z,15.37
2017-12-01T03:16:53.235Z,15.32
2017-12-01T03:19:24.435Z,15.32
2017-12-01T03:21:53.646Z,15.27
2017-12-01T03:24:24.366Z,15.17
2017-12-01T03:26:53.567Z,15.14
2017-12-01T03:29:23.524Z,15.17
2017-12-01T03:31:53.540Z,15.18
2017-12-01T03:34:24.540Z,15.21
2017-12-01T03:36:54.258Z,15.24
2017-12-01T03:39:24.358Z,15.36
2017-12-01T03:41:56.412Z,15.43
2017-12-01T03:44:25.518Z,15.46
2017-12-01T03:46:56.000Z,15.47
2017-12-01T03:49:26.607Z,15.62
2017-12-01T03:51:55.588Z,15.67
2017-12-01T03:54:24.841Z,15.64
2017-12-01T03:56:55.012Z,15.65
2017-12-01T03:59:25.269Z,15.73
2017-12-01T04:02:01.802Z,15.77
2017-12-01T04:04:31.104Z,15.82
2017-12-01T04:07:00.414Z,15.80
2017-12-01T04:09:33.132Z,15.78
2017-12-01T04:12:02.334Z,15.74
2017-12-01T04:14:31.479Z,15.73
2017-12-01T04:17:00.618Z,15.76
2017-12-01T04:19:31.738Z,15.82
2017-12-01T04:22:00.900Z,15.87
2017-12-01T04:24:30.269Z,15.82
2017-12-01T04:27:00.455Z,15.93
2017-12-01T04:29:29.655Z,15.96
2017-12-01T04:31:59.013Z,15.93
2017-12-01T04:34:28.142Z,15.98
2017-12-01T04:37:01.089Z,15.98
2017-12-01T04:39:30.294Z,16.03
2017-12-01T04:42:02.037Z,16.13
2017-12-01T04:44:32.677Z,16.18
2017-12-01T04:47:03.951Z,16.22
2017-12-01T04:49:33.987Z,16.36
2017-12-01T04:54:39.216Z,16.46
2017-12-01T04:57:08.403Z,16.49
2017-12-01T04:59:37.570Z,16.48
2017-12-01T05:02:07.209Z,16.42
2017-12-01T05:04:36.549Z,16.43
2017-12-01T05:07:05.944Z,16.48
2017-12-01T05:09:35.149Z,16.48
2017-12-01T05:12:05.183Z,16.43
2017-12-01T05:14:36.292Z,16.39
2017-12-01T05:17:06.326Z,16.46
2017-12-01T05:19:35.626Z,16.49
2017-12-01T05:22:04.763Z,16.49
2017-12-01T05:24:34.838Z,16.50
2017-12-01T05:27:08.959Z,16.55
2017-12-01T05:29:38.384Z,16.55
2017-12-01T05:32:07.588Z,16.52
2017-12-01T05:34:38.945Z,16.57
2017-12-01T05:37:10.382Z,16.60
2017-12-01T05:39:40.638Z,16.55
2017-12-01T05:42:10.988Z,16.60
2017-12-01T05:44:40.586Z,16.60
2017-12-01T05:47:10.153Z,16.57
2017-12-01T05:49:39.624Z,16.52
2017-12-01T05:52:08.692Z,16.51
2017-12-01T05:54:40.715Z,16.40
2017-12-01T05:57:12.822Z,16.41
2017-12-01T05:59:43.311Z,16.47
2017-12-01T06:02:12.713Z,16.49
2017-12-01T06:07:21.064Z,16.57
2017-12-01T06:09:50.342Z,16.55
2017-12-01T06:12:19.506Z,16.65
2017-12-01T06:14:48.904Z,16.64
2017-12-01T06:17:18.092Z,16.66
2017-12-01T06:19:47.173Z,16.63
2017-12-01T06:22:16.431Z,16.63
2017-12-01T06:24:45.735Z,16.61
2017-12-01T06:27:16.172Z,16.61
2017-12-01T06:29:49.759Z,16.61
2017-12-01T06:32:19.937Z,16.62
2017-12-01T06:34:49.131Z,16.64
2017-12-01T06:39:54.026Z,16.54
2017-12-01T06:42:24.402Z,16.54
2017-12-01T06:44:56.270Z,16.58
2017-12-01T06:47:25.422Z,16.69
2017-12-01T06:49:54.885Z,16.67
2017-12-01T06:52:24.367Z,16.72
2017-12-01T06:54:53.566Z,16.76
2017-12-01T06:57:23.611Z,16.81
2017-12-01T06:59:54.286Z,16.95
2017-12-01T07:02:23.592Z,16.92
2017-12-01T07:04:53.597Z,16.98
2017-12-01T07:07:22.998Z,17.10
2017-12-01T07:09:53.075Z,17.12
2017-12-01T07:12:23.036Z,17.07
2017-12-01T07:14:54.005Z,17.12
2017-12-01T07:17:23.044Z,17.19
2017-12-01T07:19:52.000Z,17.12
2017-12-01T07:22:21.874Z,16.97
2017-12-01T07:24:51.692Z,16.76
2017-12-01T07:27:20.833Z,16.61
2017-12-01T07:29:51.624Z,16.47
2017-12-01T07:32:20.718Z,16.40
2017-12-01T07:34:50.056Z,16.50
2017-12-01T07:37:19.101Z,16.47
2017-12-01T07:39:49.746Z,16.53
2017-12-01T07:42:18.947Z,16.64
2017-12-01T07:45:03.915Z,16.78
2017-12-01T07:47:32.984Z,17.00
2017-12-01T07:50:02.108Z,17.13
2017-12-01T07:52:33.817Z,17.19
2017-12-01T07:55:04.146Z,17.26
2017-12-01T07:57:33.439Z,17.27
2017-12-01T08:00:05.946Z,17.28
2017-12-01T08:02:35.059Z,17.36
2017-12-01T08:05:05.200Z,17.40
2017-12-01T08:07:34.990Z,17.43
2017-12-01T08:10:05.108Z,17.46
2017-12-01T08:12:35.070Z,17.53
2017-12-01T08:15:04.710Z,17.62
2017-12-01T08:17:34.598Z,17.67
2017-12-01T08:20:04.709Z,17.59
2017-12-01T08:22:47.388Z,17.47
2017-12-01T08:25:35.532Z,17.49
2017-12-01T08:28:04.741Z,17.40
2017-12-01T08:30:33.898Z,17.50
2017-12-01T08:33:05.069Z,17.58
2017-12-01T08:38:09.304Z,17.66
2017-12-01T08:40:38.541Z,17.83
2017-12-01T08:43:08.931Z,17.87
2017-12-01T08:45:39.736Z,17.82
2017-12-01T08:48:09.400Z,17.73
2017-12-01T08:50:38.795Z,17.73
2017-12-01T08:53:08.131Z,17.70
2017-12-01T08:55:37.447Z,17.71
2017-12-01T08:58:09.641Z,17.73
2017-12-01T09:00:39.153Z,17.71
2017-12-01T09:03:08.203Z,17.65
2017-12-01T09:05:37.739Z,17.62
2017-12-01T09:08:06.999Z,17.70
2017-12-01T09:10:36.110Z,17.71
2017-12-01T09:15:40.692Z,17.74
2017-12-01T09:18:10.064Z,17.69
2017-12-01T09:20:42.999Z,17.59
2017-12-01T09:23:12.059Z,17.64
2017-12-01T09:25:41.225Z,17.63
2017-12-01T09:28:12.582Z,17.64
2017-12-01T09:30:41.725Z,17.45
2017-12-01T09:33:10.834Z,17.44
2017-12-01T09:38:14.235Z,17.30
2017-12-01T09:40:44.078Z,17.24
2017-12-01T09:43:13.798Z,16.94
2017-12-01T09:45:42.967Z,16.87
2017-12-01T09:48:13.820Z,16.86
2017-12-01T09:50:44.080Z,16.86
2017-12-01T09:53:13.150Z,16.85
2017-12-01T09:55:42.465Z,16.57
2017-12-01T09:58:11.710Z,16.57
2017-12-01T10:00:41.864Z,16.46
2017-12-01T10:03:10.866Z,16.57
2017-12-01T10:05:39.976Z,16.62
2017-12-01T10:08:08.916Z,16.66
2017-12-01T10:10:38.366Z,16.73
2017-12-01T10:13:08.746Z,16.64
2017-12-01T10:15:37.942Z,16.54
2017-12-01T10:18:07.247Z,16.62
2017-12-01T10:20:37.926Z,16.59
2017-12-01T10:23:08.028Z,16.71
2017-12-01T10:25:38.064Z,16.75
2017-12-01T10:28:07.211Z,16.75
2017-12-01T10:30:37.021Z,16.87
2017-12-01T10:33:07.215Z,16.95
2017-12-01T10:35:36.241Z,16.96
2017-12-01T10:38:05.320Z,17.12
2017-12-01T10:40:34.405Z,17.32
2017-12-01T10:43:03.369Z,17.47
2017-12-01T10:45:34.102Z,17.59
2017-12-01T10:48:04.895Z,17.70
2017-12-01T10:50:33.989Z,17.74
2017-12-01T10:53:03.005Z,17.89
2017-12-01T10:55:32.976Z,17.97
2017-12-01T10:58:03.725Z,17.99
2017-12-01T11:00:34.469Z,18.12
2017-12-01T11:03:03.405Z,18.04
2017-12-01T11:05:32.324Z,18.05
2017-12-01T11:08:05.344Z,18.07
2017-12-01T11:10:34.322Z,17.98
2017-12-01T11:13:03.228Z,17.90
2017-12-01T11:15:32.413Z,17.93
2017-12-01T11:18:01.473Z,17.93
2017-12-01T11:20:30.518Z,17.81
2017-12-01T11:25:33.976Z,17.87
2017-12-01T11:28:02.799Z,17.96
2017-12-01T11:30:32.618Z,18.03
2017-12-01T11:33:01.441Z,18.09
2017-12-01T11:35:30.255Z,18.02
2017-12-01T11:38:00.178Z,18.03
2017-12-01T11:40:29.017Z,18.01
2017-12-01T11:42:57.846Z,18.09
2017-12-01T11:50:40.020Z,18.27
2017-12-01T11:53:09.084Z,18.10
2017-12-01T11:55:37.990Z,17.46
2017-12-01T11:58:08.936Z,17.41
2017-12-01T12:00:58.734Z,17.49
2017-12-01T12:03:27.745Z,17.47
2017-12-01T12:05:56.721Z,17.44
2017-12-01T12:08:25.609Z,17.49
2017-12-01T12:10:55.514Z,17.47
2017-12-01T12:13:24.628Z,17.51
2017-12-01T12:15:53.629Z,17.60
2017-12-01T12:18:22.757Z,17.63
2017-12-01T12:20:51.667Z,17.71
2017-12-01T12:23:20.619Z,17.80
2017-12-01T12:25:51.218Z,17.94
2017-12-01T12:28:20.213Z,18.06
2017-12-01T12:30:49.196Z,18.08
2017-12-01T12:33:18.212Z,18.16
2017-12-01T12:35:47.215Z,18.15
2017-12-01T12:38:16.199Z,18.23
2017-12-01T12:40:45.343Z,18.30
2017-12-01T12:43:14.398Z,18.29
2017-12-01T12:45:45.170Z,18.37
2017-12-01T12:48:14.234Z,18.40
2017-12-01T12:50:43.155Z,18.40
2017-12-01T12:53:12.148Z,18.30
2017-12-01T12:55:41.177Z,18.28
2017-12-01T12:58:10.219Z,18.40
2017-12-01T13:00:39.343Z,18.46
2017-12-01T13:03:08.612Z,18.43
2017-12-01T13:05:37.706Z,18.45
2017-12-01T13:08:06.753Z,18.50
2017-12-01T13:13:10.247Z,18.54
2017-12-01T13:15:39.260Z,18.53
2017-12-01T13:18:08.296Z,18.50
2017-12-01T13:20:37.301Z,18.48
2017-12-01T13:23:06.284Z,18.53
2017-12-01T13:25:35.411Z,18.51
2017-12-01T13:28:04.470Z,18.52
2017-12-01T13:30:33.422Z,18.45
2017-12-01T13:35:36.395Z,17.50
2017-12-01T13:38:05.409Z,17.39
2017-12-01T13:40:37.744Z,17.19
2017-12-01T13:43:06.723Z,17.19
2017-12-01T13:45:35.738Z,17.10
2017-12-01T13:48:04.899Z,17.01
2017-12-01T13:50:33.974Z,16.92
2017-12-01T13:53:02.949Z,16.85
2017-12-01T13:55:32.798Z,16.84
2017-12-01T13:58:01.803Z,16.73
2017-12-01T14:00:30.847Z,16.67
2017-12-01T14:02:59.992Z,16.66
2017-12-01T14:05:28.997Z,16.73
2017-12-01T14:07:57.892Z,16.79
2017-12-01T14:10:28.391Z,16.92
2017-12-01T14:12:57.210Z,17.05
2017-12-01T14:15:26.066Z,17.15
2017-12-01T14:17:56.608Z,17.13
2017-12-01T14:20:25.507Z,17.28
2017-12-01T14:22:54.391Z,17.15
2017-12-01T14:25:24.207Z,16.86
2017-12-01T14:27:53.066Z,16.51
2017-12-01T14:30:21.880Z,16.19
2017-12-01T14:32:50.734Z,15.87
2017-12-01T14:35:19.557Z,15.62
2017-12-01T14:37:48.411Z,15.30
2017-12-01T14:40:17.331Z,15.11
2017-12-01T14:42:46.294Z,14.97
2017-12-01T14:45:15.135Z,14.91
2017-12-01T14:47:44.031Z,14.91
2017-12-01T14:50:12.867Z,14.84
2017-12-01T14:52:41.713Z,14.72
2017-12-01T14:55:11.522Z,14.62
2017-12-01T14:57:40.350Z,14.62
2017-12-01T15:00:09.248Z,14.52
2017-12-01T15:02:39.084Z,14.40
2017-12-01T15:05:08.096Z,14.31
2017-12-01T15:07:37.357Z,14.35
2017-12-01T15:10:07.255Z,14.32
2017-12-01T15:12:36.254Z,14.34
2017-12-01T15:15:05.342Z,14.38
2017-12-01T15:17:34.364Z,14.37
2017-12-01T15:20:07.779Z,14.36
2017-12-01T15:22:38.008Z,14.40
2017-12-01T15:25:06.852Z,14.36
2017-12-01T15:27:35.706Z,14.35
2017-12-01T15:30:06.338Z,14.38
2017-12-01T15:32:36.293Z,14.41
2017-12-01T15:35:06.417Z,14.49
2017-12-01T15:37:36.400Z,14.50
2017-12-01T15:40:05.520Z,14.50
2017-12-01T15:42:34.627Z,14.55
2017-12-01T15:45:06.140Z,14.44
2017-12-01T15:47:35.632Z,14.48
2017-12-01T15:50:05.750Z,14.51
2017-12-01T15:52:36.956Z,14.52
2017-12-01T15:55:06.889Z,14.50
2017-12-01T15:57:36.054Z,14.53
2017-12-01T16:00:06.763Z,14.58
2017-12-01T16:02:35.990Z,14.67
2017-12-01T16:05:06.073Z,14.77
2017-12-01T16:07:36.120Z,14.85
2017-12-01T16:10:06.380Z,14.82
2017-12-01T16:12:35.920Z,14.61
2017-12-01T16:15:05.464Z,14.52
2017-12-01T16:17:34.872Z,14.49
2017-12-01T16:20:04.040Z,14.42
2017-12-01T16:22:35.046Z,14.40
2017-12-01T16:25:04.194Z,14.33
2017-12-01T16:27:33.459Z,14.29
2017-12-01T16:30:02.750Z,14.26
2017-12-01T16:32:32.656Z,14.26
2017-12-01T16:35:01.852Z,14.30
2017-12-01T16:37:32.026Z,14.29
2017-12-01T16:40:01.401Z,14.28
2017-12-01T16:42:31.687Z,14.26
2017-12-01T16:45:01.973Z,14.24
2017-12-01T16:47:31.489Z,14.24
2017-12-01T16:50:01.079Z,14.24
2017-12-01T16:52:32.389Z,14.30
2017-12-01T16:55:01.625Z,14.28
2017-12-01T16:57:31.671Z,14.30
2017-12-01T17:00:01.157Z,14.30
2017-12-01T17:02:30.600Z,14.51
2017-12-01T17:05:00.496Z,14.88
2017-12-01T17:10:05.027Z,15.16
2017-12-01T17:12:34.494Z,15.27
2017-12-01T17:15:05.808Z,15.48
2017-12-01T17:17:35.944Z,15.67
2017-12-01T17:20:05.351Z,15.78
2017-12-01T17:22:34.914Z,15.70
2017-12-01T17:25:05.064Z,15.61
2017-12-01T17:27:34.488Z,15.49
2017-12-01T17:30:05.122Z,15.31
2017-12-01T17:32:35.342Z,15.11
2017-12-01T17:37:40.560Z,14.77
2017-12-01T17:40:10.634Z,14.61
2017-12-01T17:42:40.422Z,14.50
2017-12-01T17:45:11.326Z,14.41
2017-12-01T17:47:40.821Z,14.33
2017-12-01T17:50:10.325Z,14.12
2017-12-01T17:52:40.178Z,14.06
2017-12-01T17:55:11.473Z,14.02
2017-12-01T17:57:40.794Z,13.96
2017-12-01T18:00:10.051Z,13.91
2017-12-01T18:02:41.256Z,13.94
2017-12-01T18:05:10.688Z,13.85
2017-12-01T18:07:39.917Z,13.79
2017-12-01T18:10:12.275Z,13.80
2017-12-01T18:12:43.125Z,13.76
2017-12-01T18:15:12.286Z,13.76
2017-12-01T18:17:42.619Z,13.75
2017-12-01T18:20:11.917Z,13.71
2017-12-01T18:22:41.038Z,13.73
2017-12-01T18:25:13.607Z,13.76
2017-12-01T18:27:42.887Z,13.80
2017-12-01T18:30:12.190Z,13.81
2017-12-01T18:32:41.289Z,13.82
2017-12-01T18:35:10.599Z,13.85
2017-12-01T18:37:40.019Z,13.89
2017-12-01T18:40:09.228Z,13.89
2017-12-01T18:42:38.444Z,13.85
2017-12-01T18:45:07.498Z,13.86
2017-12-01T18:47:38.447Z,13.91
2017-12-01T18:50:07.881Z,13.83
2017-12-01T18:52:37.491Z,13.80
2017-12-01T18:55:06.587Z,13.83
2017-12-01T18:57:36.096Z,13.81
2017-12-01T19:00:05.115Z,13.78
2017-12-01T19:02:34.318Z,13.75
2017-12-01T19:05:05.204Z,13.75
2017-12-01T19:07:36.230Z,13.69
2017-12-01T19:10:05.861Z,13.73
2017-12-01T19:12:35.220Z,13.70
2017-12-01T19:15:05.368Z,13.66
2017-12-01T19:17:34.973Z,13.69
2017-12-01T19:20:04.051Z,13.70
2017-12-01T19:22:34.264Z,13.64
2017-12-01T19:25:03.798Z,13.70
2017-12-01T19:27:32.981Z,13.67
2017-12-01T19:30:03.963Z,13.64
2017-12-01T19:32:34.194Z,13.70
2017-12-01T19:35:06.054Z,13.66
2017-12-01T19:37:35.302Z,13.62
2017-12-01T19:40:04.549Z,13.60
2017-12-01T19:42:34.544Z,13.60
2017-12-01T19:45:03.872Z,13.62
2017-12-01T19:47:33.157Z,13.57
2017-12-01T19:50:05.298Z,13.54
2017-12-01T19:52:34.643Z,13.58
2017-12-01T19:55:05.183Z,13.58
2017-12-01T19:57:34.469Z,13.68
2017-12-01T20:00:03.549Z,13.63
2017-12-01T20:02:34.602Z,13.64
2017-12-01T20:05:04.861Z,13.72
2017-12-01T20:07:33.924Z,13.74
2017-12-01T20:10:04.125Z,13.72
2017-12-01T20:12:33.779Z,13.74
2017-12-01T20:15:03.919Z,13.79
2017-12-01T20:17:34.126Z,13.80
2017-12-01T20:20:03.558Z,13.81
2017-12-01T20:22:32.909Z,13.82
2017-12-01T20:25:03.241Z,13.79
2017-12-01T20:27:32.923Z,13.75
2017-12-01T20:30:03.449Z,13.74
2017-12-01T20:32:32.727Z,13.72
2017-12-01T20:35:02.119Z,13.81
2017-12-01T20:37:31.424Z,13.80
2017-12-01T20:40:00.374Z,13.85
2017-12-01T20:42:32.327Z,13.86
2017-12-01T20:45:02.070Z,13.86
2017-12-01T20:47:32.291Z,13.89
2017-12-01T20:50:01.706Z,13.92
2017-12-01T20:52:31.029Z,13.95
2017-12-01T20:55:01.235Z,14.01
2017-12-01T20:57:30.782Z,14.01
2017-12-01T21:00:00.108Z,13.97
2017-12-01T21:02:29.817Z,13.97
2017-12-01T21:04:59.250Z,14.00
2017-12-01T21:07:28.627Z,14.05
2017-12-01T21:09:58.414Z,14.04
2017-12-01T21:12:28.606Z,14.06
2017-12-01T21:14:58.144Z,14.10
2017-12-01T21:17:29.120Z,14.06
2017-12-01T21:19:58.560Z,14.13
2017-12-01T21:22:28.001Z,14.15
2017-12-01T21:24:58.329Z,14.14
2017-12-01T21:27:28.146Z,14.13
2017-12-01T21:29:57.661Z,14.09
2017-12-01T21:32:33.442Z,14.17
2017-12-01T21:35:03.003Z,14.22
2017-12-01T21:37:32.775Z,14.18
2017-12-01T21:40:02.541Z,14.17
2017-12-01T21:42:33.213Z,14.14
2017-12-01T21:45:04.336Z,14.16
2017-12-01T21:47:34.031Z,14.18
2017-12-01T21:50:05.015Z,14.17
2017-12-01T21:55:09.730Z,14.20
2017-12-01T21:57:39.082Z,14.13
2017-12-01T22:00:08.321Z,14.12
2017-12-01T22:02:37.636Z,14.24
2017-12-01T22:05:06.713Z,14.32
2017-12-01T22:07:36.008Z,14.31
2017-12-01T22:10:05.587Z,14.32
2017-12-01T22:12:35.001Z,14.31
2017-12-01T22:15:04.226Z,14.30
2017-12-01T22:20:10.100Z,14.29
2017-12-01T22:22:39.303Z,14.29
2017-12-01T22:25:08.314Z,14.31
2017-12-01T22:27:40.469Z,14.33
2017-12-01T22:30:09.848Z,14.35
2017-12-01T22:32:40.188Z,14.36
2017-12-01T22:35:10.491Z,14.38
2017-12-01T22:37:39.796Z,14.35
2017-12-01T22:40:09.122Z,14.38
2017-12-01T22:45:14.516Z,14.37
2017-12-01T22:47:44.284Z,14.37
2017-12-01T22:50:14.520Z,14.39
2017-12-01T22:52:43.675Z,14.31
2017-12-01T22:55:12.806Z,14.29
2017-12-01T22:57:42.671Z,14.24
2017-12-01T23:00:12.415Z,14.21
2017-12-01T23:02:41.580Z,14.17
2017-12-01T23:05:11.587Z,14.14
2017-12-01T23:07:40.591Z,14.06
2017-12-01T23:10:10.408Z,14.04
2017-12-01T23:12:39.550Z,14.04
2017-12-01T23:15:08.745Z,14.08
2017-12-01T23:17:38.056Z,14.02
2017-12-01T23:20:08.074Z,14.02
2017-12-01T23:22:37.095Z,14.10
2017-12-01T23:25:06.216Z,14.03
2017-12-01T23:27:36.332Z,14.04
2017-12-01T23:30:06.648Z,14.06
2017-12-01T23:32:36.455Z,14.11
2017-12-01T23:35:08.086Z,14.09
2017-12-01T23:37:37.048Z,14.12
2017-12-01T23:40:07.148Z,14.12
2017-12-01T23:42:37.293Z,14.17
2017-12-01T23:45:06.403Z,14.14
2017-12-01T23:47:36.556Z,14.14
2017-12-01T23:50:07.710Z,14.10
2017-12-01T23:52:37.599Z,14.10
2017-12-01T23:55:07.930Z,14.10
2017-12-01T23:57:38.306Z,14.08
